Latest Coastal Weather Observations for Yamba

IDN60701

Issued at 11:11 am EDT Thursday 23 February 2017 (issued every 10 minutes, with the page automatically refreshed every 10 minutes)

About coastal observations | Map of coastal stations | Coastal observations for NSW | Marine services | Other Formats
Station Details ID: 058012 Name: YAMBA PILOT STATION Lat: -29.43 Lon: 153.36 Height: 27.4 m
Data from the previous 72 hours. | See also: Recent months at Yamba
Date/Time
EDT
Temp
°C
Wind Pressure Rain since
9am
mm
Weather Cloud Vis
km
Sea
Height
m
Swell
Dir  Spd
kts
Gust
kts
hPa Trend Height
m
Period
s
Dir
23/11:00am 26.5 SE 9 12 1020.1 - 0.0 - - - - - - -
23/10:30am 26.5 SSE 8 12 1020.3 - 0.0 - - - - - - -
23/10:00am 26.0 SSE 7 11 1020.4 - 0.0 - - - - - - -
23/09:30am 25.6 SSE 6 11 1020.3 - 0.0 - - - - - - -
23/09:00am 24.8 S 5 7 1020.2 - 0.0 - - - - - - -
23/08:30am 24.1 SW 4 6 1020.1 - 0.0 - - - - - - -
23/08:00am 22.9 SW 4 6 1019.8 - 0.0 - - - - - - -
23/07:30am 22.2 SSW 3 6 1019.6 - 0.0 - - - - - - -
23/07:00am 21.8 SSE 4 7 1019.3 - 0.0 - - - - - - -
23/06:30am 22.8 ESE 7 10 1018.9 - 0.0 - - - - - - -
23/06:00am 22.4 SSE 6 8 1018.9 - 0.0 - - - - - - -
23/05:30am 22.9 SE 7 10 1018.5 - 0.0 - - - - - - -
23/05:00am 23.3 ESE 7 10 1018.4 - 0.0 - - - - - - -
23/04:30am 23.0 ESE 6 9 1018.4 - 0.0 - - - - - - -
23/04:00am 23.3 ESE 7 10 1018.5 - 0.0 - - - - - - -
23/03:30am 23.2 ESE 7 9 1018.7 - 0.0 - - - - - - -
23/03:00am 23.4 ESE 9 14 1018.9 - 0.0 - - - - - - -
23/02:30am 23.9 ESE 10 13 1019.0 - 0.0 - - - - - - -
23/02:00am 23.8 ESE 8 13 1019.2 - 0.0 - - - - - - -
23/01:30am 23.8 ESE 10 14 1019.5 - 0.0 - - - - - - -
23/01:00am 23.9 ESE 8 12 1019.6 - 0.0 - - - - - - -
23/12:30am 24.0 ESE 9 13 1019.9 - 0.0 - - - - - - -
23/12:00am 24.0 ESE 8 11 1020.1 - 0.0 - - - - - - -
 
Date/Time
EDT
Temp
°C
Wind Pressure Rain since
9am
mm
Weather Cloud Vis
km
Sea
Height
m
Swell
Dir  Spd
kts
Gust
kts
hPa Trend Height
m
Period
s
Dir
22/11:30pm 24.1 ESE 8 12 1020.2 - 0.0 - - - - - - -
22/11:00pm 24.2 ESE 10 13 1020.2 - 0.0 - - - - - - -
22/10:30pm 24.3 E 10 14 1020.2 - 0.0 - - - - - - -
22/10:00pm 24.3 ESE 10 13 1020.3 - 0.0 - - - - - - -
22/09:30pm 24.4 ESE 9 13 1020.3 - 0.0 - - - - - - -
22/09:00pm 24.2 ESE 9 13 1020.1 - 0.0 - - - - - - -
22/08:30pm 24.1 ESE 9 13 1019.7 - 0.0 - - - - - - -
22/08:00pm 24.2 ESE 10 14 1019.4 - 0.0 - - - - - - -
22/07:30pm 24.3 E 9 13 1019.2 - 0.0 - - - - - - -
22/07:00pm 24.4 ESE 9 14 1019.1 - 0.0 - - - - - - -
22/06:30pm 24.8 ESE 8 13 1018.9 - 0.0 - - - - - - -
22/06:00pm 25.3 ESE 10 14 1019.0 - 0.0 - - - - - - -
22/05:30pm 25.6 ESE 10 15 1018.8 - 0.0 - - - - - - -
22/05:00pm 25.8 ESE 9 14 1018.9 - 0.0 - - - - - - -
22/04:30pm 25.7 ESE 10 14 1019.0 - 0.0 - - - - - - -
22/04:00pm 26.2 ESE 9 13 1019.1 - 0.0 - - - - - - -
22/03:30pm 25.8 ESE 10 15 1019.2 - 0.0 - - - - - - -
22/03:00pm 26.6 ESE 9 13 1019.2 - 0.0 - - - - - - -
22/02:30pm 26.5 ESE 9 13 1019.6 - 0.0 - - - - - - -
22/02:00pm 26.7 ESE 10 14 1019.9 - 0.0 - - - - - - -
22/01:30pm 26.0 ESE 9 13 1020.1 - 0.0 - - - - - - -
22/01:00pm 26.3 ESE 10 13 1020.3 - 0.0 - - - - - - -
22/12:30pm 26.7 ESE 8 12 1020.5 - 0.0 - - - - - - -
22/12:00pm 26.3 ESE 11 15 1020.8 - 0.0 - - - - - - -
22/11:30am 27.2 ESE 10 13 1020.8 - 0.0 - - - - - - -
22/11:00am 26.1 ESE 9 12 1021.0 - 0.0 - - - - - - -
22/10:30am 26.7 ESE 8 13 1021.0 - 0.0 - - - - - - -
22/10:00am 25.7 ESE 8 12 1021.1 - 0.0 - - - - - - -
22/09:30am 25.0 ESE 9 13 1021.1 - 0.0 - - - - - - -
22/09:00am 24.5 ESE 8 13 1021.0 - 0.4 - - - - - - -
22/08:30am 24.3 ESE 9 11 1020.8 - 0.4 - - - - - - -
22/08:00am 24.2 ESE 9 13 1020.4 - 0.4 - - - - - - -
22/07:30am 24.1 ESE 8 11 1020.2 - 0.4 - - - - - - -
22/07:00am 24.0 E 9 14 1019.9 - 0.4 - - - - - - -
22/06:30am 24.0 ESE 9 13 1019.4 - 0.4 - - - - - - -
22/06:00am 23.8 ESE 9 13 1019.2 - 0.4 - - - - - - -
22/05:30am 23.9 ESE 10 14 1018.9 - 0.4 - - - - - - -
22/05:00am 24.0 ESE 10 15 1018.6 - 0.4 - - - - - - -
22/04:30am 24.2 ESE 10 13 1018.5 - 0.4 - - - - - - -
22/04:00am 24.1 ESE 9 13 1018.4 - 0.4 - - - - - - -
22/03:30am 24.1 ESE 8 12 1018.3 - 0.4 - - - - - - -
22/03:00am 24.1 ESE 9 13 1018.2 - 0.4 - - - - - - -
22/02:30am 24.2 ESE 9 13 1018.3 - 0.4 - - - - - - -
22/02:00am 24.1 ESE 6 10 1018.6 - 0.4 - - - - - - -
22/01:30am 24.2 ESE 6 9 1018.9 - 0.4 - - - - - - -
22/01:00am 24.2 ESE 5 8 1019.3 - 0.4 - - - - - - -
22/12:30am 24.2 E 7 9 1019.5 - 0.4 - - - - - - -
22/12:00am 24.1 E 7 11 1019.5 - 0.4 Recent precip. - - - - - -
 
Date/Time
EDT
Temp
°C
Wind Pressure Rain since
9am
mm
Weather Cloud Vis
km
Sea
Height
m
Swell
Dir  Spd
kts
Gust
kts
hPa Trend Height
m
Period
s
Dir
21/11:30pm 24.2 E 8 11 1019.9 - 0.4 - - - - - - -
21/11:00pm 23.7 NE 6 9 1020.1 - 0.2 - - - - - - -
21/10:30pm 24.3 E 5 8 1019.9 - 0.2 - - - - - - -
21/10:00pm 24.3 E 6 10 1020.1 - 0.2 - - - - - - -
21/09:30pm 24.4 ESE 8 11 1019.7 - 0.2 - - - - - - -
21/09:00pm 24.4 ESE 8 11 1019.7 - 0.2 - - - - - - -
21/08:30pm 24.6 ESE 8 12 1019.5 - 0.2 - - - - - - -
21/08:00pm 24.5 ESE 9 12 1019.2 - 0.2 - - - - - - -
21/07:30pm 24.5 ESE 10 13 1018.8 - 0.2 - - - - - - -
21/07:00pm 24.4 ESE 11 14 1018.4 - 0.2 - - - - - - -
21/06:30pm 24.1 ESE 8 12 1018.1 - 0.2 - - - - - - -
21/06:00pm 24.1 ESE 7 13 1017.9 - 0.2 - - - - - - -
21/05:30pm 23.2 SE 8 12 1017.7 - 0.2 - - - - - - -
21/05:00pm 23.9 ESE 8 11 1017.7 - 0.2 - - - - - - -
21/04:30pm 24.0 ESE 9 13 1017.7 - 0.2 - - - - - - -
21/04:00pm 23.2 SSW 4 6 1017.6 - 0.2 - - - - - - -
21/03:30pm 23.4 SW 4 6 1017.5 - 0.2 - - - - - - -
21/03:00pm 23.5 SW 4 6 1017.5 - 0.2 - - - - - - -
21/02:30pm 23.5 SSW 4 7 1017.7 - 0.2 - - - - - - -
21/02:00pm 23.2 SSW 5 6 1017.9 - 0.2 - - - - - - -
21/01:30pm 23.0 SSW 5 7 1018.0 - 0.2 - - - - - - -
21/01:00pm 22.7 SW 4 6 1018.2 - 0.2 - - - - - - -
21/12:30pm 22.6 WSW 4 7 1018.4 - 0.2 - - - - - - -
21/12:00pm 22.3 WSW 5 6 1018.6 - 0.0 - - - - - - -
21/11:30am 21.6 W 5 6 1019.0 - 0.0 - - - - - - -
21/11:00am 21.6 NW 6 8 1019.0 - 0.0 - - - - - - -
21/10:30am 21.0 WNW 7 10 1018.9 - 0.0 - - - - - - -
21/10:00am 20.7 NW 6 9 1018.7 - 0.0 - - - - - - -
21/09:30am 20.4 WSW 6 8 1018.2 - 0.0 - - - - - - -
21/09:00am 20.6 WSW 6 8 1017.9 - 0.0 - - - - - - -
21/08:30am 20.3 W 5 7 1017.6 - 0.0 - - - - - - -
21/08:00am 20.8 SW 4 6 1017.1 - 0.0 - - - - - - -
21/07:30am 20.9 WSW 5 6 1016.6 - 0.0 - - - - - - -
21/07:00am 20.7 SW 6 8 1016.0 - 0.0 - - - - - - -
21/06:30am 20.7 SSW 6 7 1015.6 - 0.0 - - - - - - -
21/06:00am 20.2 SW 5 8 1015.3 - 0.0 - - - - - - -
21/05:30am 20.4 WSW 5 7 1015.3 - 0.0 - - - - - - -
21/05:00am 21.0 W 5 7 1014.9 - 0.0 - - - - - - -
21/04:30am 21.4 SSW 5 7 1014.8 - 0.0 - - - - - - -
21/04:00am 21.7 WSW 5 7 1014.5 - 0.0 - - - - - - -
21/03:30am 21.9 WNW 5 6 1014.4 - 0.0 - - - - - - -
21/03:00am 22.1 WSW 5 7 1014.7 - 0.0 - - - - - - -
21/02:30am 22.3 W 5 8 1014.8 - 0.0 - - - - - - -
21/02:00am 23.6 SE 4 6 1015.1 - 0.0 - - - - - - -
21/01:30am 24.4 ESE 5 7 1015.3 - 0.0 - - - - - - -
21/01:00am 24.6 ESE 7 9 1015.3 - 0.0 - - - - - - -
21/12:30am 24.7 ESE 7 9 1015.4 - 0.0 - - - - - - -
21/12:00am 24.6 E 6 9 1015.6 - 0.0 - - - - - - -
 
Date/Time
EDT
Temp
°C
Wind Pressure Rain since
9am
mm
Weather Cloud Vis
km
Sea
Height
m
Swell
Dir  Spd
kts
Gust
kts
hPa Trend Height
m
Period
s
Dir
20/11:30pm 24.4 ESE 8 10 1015.5 - 0.0 - - - - - - -
20/11:00pm 24.4 E 6 9 1015.7 - 0.0 - - - - - - -
20/10:30pm 24.4 E 7 9 1015.2 - 0.0 - - - - - - -
20/10:00pm 24.5 E 7 10 1014.9 - 0.0 - - - - - - -
20/09:30pm 24.5 E 8 13 1014.6 - 0.0 - - - - - - -
20/09:00pm 24.5 E 8 11 1014.0 - 0.0 - - - - - - -
20/08:30pm 24.6 E 9 13 1013.5 - 0.0 - - - - - - -
20/08:00pm 24.7 E 8 11 1012.9 - 0.0 - - - - - - -
20/07:30pm 24.8 E 9 13 1012.3 - 0.0 - - - - - - -
20/07:00pm 25.0 E 8 12 1011.8 - 0.0 - - - - - - -
20/06:30pm 25.5 E 9 13 1011.3 - 0.0 - - - - - - -
20/06:00pm 25.8 E 11 16 1010.9 - 0.0 - - - - - - -
20/05:30pm 26.1 ESE 12 17 1010.5 - 0.0 - - - - - - -
20/05:00pm 26.3 E 11 15 1010.5 - 0.0 - - - - - - -
20/04:30pm 26.5 ESE 11 15 1010.2 - 0.0 - - - - - - -
20/04:00pm 26.8 ESE 9 14 1010.1 - 0.0 - - - - - - -
20/03:30pm 27.1 SE 11 15 1010.0 - 0.0 - - - - - - -
20/03:00pm 26.6 SE 12 15 1010.2 - 0.0 - - - - - - -
20/02:30pm 26.5 SE 11 14 1010.5 - 0.0 - - - - - - -
20/02:00pm 26.4 SE 11 16 1010.8 - 0.0 - - - - - - -
20/01:30pm 26.0 SSE 12 14 1011.1 - 0.0 - - - - - - -
20/01:00pm 27.1 SSE 11 14 1011.4 - 0.0 - - - - - - -
20/12:30pm 27.3 SE 10 14 1011.7 - 0.0 - - - - - - -
20/12:00pm 27.5 SSE 10 14 1011.8 - 0.0 - - - - - - -
20/11:30am 26.8 SSE 11 16 1011.8 - 0.0 - - - - - - -

Other Formats:

Comma delimited format used in spreadsheet applications
http://www.bom.gov.au/fwo/IDN60701/IDN60701.94589.axf

JavaScript Object Notation format (JSON) in row-major order
http://www.bom.gov.au/fwo/IDN60701/IDN60701.94589.json